sensor_id;sensor_type;location;lat;lon;timestamp;pressure;altitude;pressure_sealevel;temperature
72054;BMP280;59918;51.280;7.950;2023-02-13T00:00:13;100057.66;;;7.80
72054;BMP280;59918;51.280;7.950;2023-02-13T00:02:39;100059.41;;;7.80
72054;BMP280;59918;51.280;7.950;2023-02-13T00:05:04;100053.50;;;7.79
72054;BMP280;59918;51.280;7.950;2023-02-13T00:07:30;100055.22;;;7.79
72054;BMP280;59918;51.280;7.950;2023-02-13T00:09:55;100052.41;;;7.82
72054;BMP280;59918;51.280;7.950;2023-02-13T00:12:20;100048.38;;;7.79
72054;BMP280;59918;51.280;7.950;2023-02-13T00:14:45;100047.69;;;7.77
72054;BMP280;59918;51.280;7.950;2023-02-13T00:17:10;100045.38;;;7.74
72054;BMP280;59918;51.280;7.950;2023-02-13T00:19:36;100047.53;;;7.69
72054;BMP280;59918;51.280;7.950;2023-02-13T00:22:01;100043.47;;;7.67
72054;BMP280;59918;51.280;7.950;2023-02-13T00:24:26;100040.91;;;7.67
72054;BMP280;59918;51.280;7.950;2023-02-13T00:26:51;100048.75;;;7.65
72054;BMP280;59918;51.280;7.950;2023-02-13T00:29:17;100048.88;;;7.64
72054;BMP280;59918;51.280;7.950;2023-02-13T00:31:42;100043.88;;;7.63
72054;BMP280;59918;51.280;7.950;2023-02-13T00:34:07;100044.00;;;7.61
72054;BMP280;59918;51.280;7.950;2023-02-13T00:36:33;100039.03;;;7.60
72054;BMP280;59918;51.280;7.950;2023-02-13T00:38:58;100044.28;;;7.58
72054;BMP280;59918;51.280;7.950;2023-02-13T00:41:24;100048.44;;;7.59
72054;BMP280;59918;51.280;7.950;2023-02-13T00:43:49;100038.34;;;7.58
72054;BMP280;59918;51.280;7.950;2023-02-13T00:46:15;100036.59;;;7.58
72054;BMP280;59918;51.280;7.950;2023-02-13T00:48:41;100039.16;;;7.58
72054;BMP280;59918;51.280;7.950;2023-02-13T00:51:07;100037.28;;;7.60
72054;BMP280;59918;51.280;7.950;2023-02-13T00:53:33;100031.19;;;7.61
72054;BMP280;59918;51.280;7.950;2023-02-13T00:56:00;100026.06;;;7.61
72054;BMP280;59918;51.280;7.950;2023-02-13T00:58:25;100030.69;;;7.58
72054;BMP280;59918;51.280;7.950;2023-02-13T01:00:51;100018.91;;;7.55
72054;BMP280;59918;51.280;7.950;2023-02-13T01:03:20;100020.81;;;7.53
72054;BMP280;59918;51.280;7.950;2023-02-13T01:05:46;100027.00;;;7.51
72054;BMP280;59918;51.280;7.950;2023-02-13T01:08:13;100022.69;;;7.51
72054;BMP280;59918;51.280;7.950;2023-02-13T01:10:39;100016.78;;;7.51
72054;BMP280;59918;51.280;7.950;2023-02-13T01:13:06;100019.44;;;7.49
72054;BMP280;59918;51.280;7.950;2023-02-13T01:15:31;100031.47;;;7.49
72054;BMP280;59918;51.280;7.950;2023-02-13T01:17:57;100027.81;;;7.51
72054;BMP280;59918;51.280;7.950;2023-02-13T01:20:23;100022.13;;;7.48
72054;BMP280;59918;51.280;7.950;2023-02-13T01:22:49;100027.78;;;7.42
72054;BMP280;59918;51.280;7.950;2023-02-13T01:25:14;100025.75;;;7.36
72054;BMP280;59918;51.280;7.950;2023-02-13T01:27:39;100027.50;;;7.35
72054;BMP280;59918;51.280;7.950;2023-02-13T01:30:06;100034.25;;;7.36
72054;BMP280;59918;51.280;7.950;2023-02-13T01:32:32;100034.25;;;7.36
72054;BMP280;59918;51.280;7.950;2023-02-13T01:34:57;100024.16;;;7.35
72054;BMP280;59918;51.280;7.950;2023-02-13T01:37:22;100024.56;;;7.30
72054;BMP280;59918;51.280;7.950;2023-02-13T01:39:47;100023.72;;;7.30
72054;BMP280;59918;51.280;7.950;2023-02-13T01:42:21;100022.66;;;7.32
72054;BMP280;59918;51.280;7.950;2023-02-13T01:44:48;100026.84;;;7.33
72054;BMP280;59918;51.280;7.950;2023-02-13T01:47:19;100024.38;;;7.32
72054;BMP280;59918;51.280;7.950;2023-02-13T01:49:47;100017.00;;;7.29
72054;BMP280;59918;51.280;7.950;2023-02-13T01:52:15;100022.91;;;7.29
72054;BMP280;59918;51.280;7.950;2023-02-13T01:54:43;100014.31;;;7.30
72054;BMP280;59918;51.280;7.950;2023-02-13T01:57:19;100015.34;;;7.28
72054;BMP280;59918;51.280;7.950;2023-02-13T01:59:50;100017.41;;;7.25
72054;BMP280;59918;51.280;7.950;2023-02-13T02:02:17;100024.25;;;7.24
72054;BMP280;59918;51.280;7.950;2023-02-13T02:04:44;100018.31;;;7.24
72054;BMP280;59918;51.280;7.950;2023-02-13T02:07:16;100020.75;;;7.25
72054;BMP280;59918;51.280;7.950;2023-02-13T02:09:42;100022.63;;;7.23
72054;BMP280;59918;51.280;7.950;2023-02-13T02:12:16;100011.72;;;7.21
72054;BMP280;59918;51.280;7.950;2023-02-13T02:14:42;100019.53;;;7.20
72054;BMP280;59918;51.280;7.950;2023-02-13T02:17:07;100010.34;;;7.17
72054;BMP280;59918;51.280;7.950;2023-02-13T02:27:54;100015.31;;;7.09
72054;BMP280;59918;51.280;7.950;2023-02-13T02:33:02;100016.63;;;7.04
72054;BMP280;59918;51.280;7.950;2023-02-13T02:46:35;100004.31;;;6.89
72054;BMP280;59918;51.280;7.950;2023-02-13T02:49:13;100005.28;;;6.88
72054;BMP280;59918;51.280;7.950;2023-02-13T02:57:04;99991.28;;;6.91
72054;BMP280;59918;51.280;7.950;2023-02-13T02:59:32;99992.09;;;6.92
72054;BMP280;59918;51.280;7.950;2023-02-13T03:01:59;99994.66;;;6.92
72054;BMP280;59918;51.280;7.950;2023-02-13T03:04:30;99996.41;;;6.91
72054;BMP280;59918;51.280;7.950;2023-02-13T03:07:04;99993.16;;;6.90
72054;BMP280;59918;51.280;7.950;2023-02-13T03:09:39;99991.28;;;6.91
72054;BMP280;59918;51.280;7.950;2023-02-13T03:12:07;99998.00;;;6.92
72054;BMP280;59918;51.280;7.950;2023-02-13T03:14:33;100002.31;;;6.92
72054;BMP280;59918;51.280;7.950;2023-02-13T03:16:59;99994.88;;;6.89
72054;BMP280;59918;51.280;7.950;2023-02-13T03:19:41;99995.56;;;6.91
72054;BMP280;59918;51.280;7.950;2023-02-13T03:22:14;99994.88;;;6.89
72054;BMP280;59918;51.280;7.950;2023-02-13T03:30:03;99992.03;;;6.83
72054;BMP280;59918;51.280;7.950;2023-02-13T03:32:44;99989.59;;;6.81
72054;BMP280;59918;51.280;7.950;2023-02-13T03:38:03;99988.00;;;6.80
72054;BMP280;59918;51.280;7.950;2023-02-13T03:40:33;99997.56;;;6.78
72054;BMP280;59918;51.280;7.950;2023-02-13T03:43:10;99998.25;;;6.80
72054;BMP280;59918;51.280;7.950;2023-02-13T03:45:38;99998.91;;;6.82
72054;BMP280;59918;51.280;7.950;2023-02-13T03:48:06;99995.56;;;6.82
72054;BMP280;59918;51.280;7.950;2023-02-13T03:50:33;100006.84;;;6.79
72054;BMP280;59918;51.280;7.950;2023-02-13T03:53:05;100011.03;;;6.80
72054;BMP280;59918;51.280;7.950;2023-02-13T03:55:35;100003.91;;;6.84
72054;BMP280;59918;51.280;7.950;2023-02-13T03:58:06;100002.84;;;6.86
72054;BMP280;59918;51.280;7.950;2023-02-13T04:00:41;100007.94;;;6.86
72054;BMP280;59918;51.280;7.950;2023-02-13T04:03:13;100002.84;;;6.86
72054;BMP280;59918;51.280;7.950;2023-02-13T04:05:49;99999.31;;;6.87
72054;BMP280;59918;51.280;7.950;2023-02-13T04:08:15;100004.59;;;6.86
72054;BMP280;59918;51.280;7.950;2023-02-13T04:10:49;100007.84;;;6.88
72054;BMP280;59918;51.280;7.950;2023-02-13T04:13:25;100007.00;;;6.87
72054;BMP280;59918;51.280;7.950;2023-02-13T04:15:56;100015.88;;;6.83
72054;BMP280;59918;51.280;7.950;2023-02-13T04:18:26;99993.91;;;6.81
72054;BMP280;59918;51.280;7.950;2023-02-13T04:20:52;100003.34;;;6.80
72054;BMP280;59918;51.280;7.950;2023-02-13T04:23:18;99997.28;;;6.81
72054;BMP280;59918;51.280;7.950;2023-02-13T04:25:47;99995.00;;;6.78
72054;BMP280;59918;51.280;7.950;2023-02-13T04:28:14;99994.19;;;6.78
72054;BMP280;59918;51.280;7.950;2023-02-13T04:30:39;99996.75;;;6.78
72054;BMP280;59918;51.280;7.950;2023-02-13T04:33:04;99989.06;;;6.78
72054;BMP280;59918;51.280;7.950;2023-02-13T04:35:30;99992.31;;;6.80
72054;BMP280;59918;51.280;7.950;2023-02-13T04:37:55;99996.59;;;6.79
72054;BMP280;59918;51.280;7.950;2023-02-13T04:40:20;99991.63;;;6.78
72054;BMP280;59918;51.280;7.950;2023-02-13T04:42:48;99993.38;;;6.77
72054;BMP280;59918;51.280;7.950;2023-02-13T04:45:14;99989.19;;;6.76
72054;BMP280;59918;51.280;7.950;2023-02-13T04:47:40;99990.00;;;6.77
72054;BMP280;59918;51.280;7.950;2023-02-13T04:50:05;99983.97;;;6.78
72054;BMP280;59918;51.280;7.950;2023-02-13T04:52:31;99981.41;;;6.78
72054;BMP280;59918;51.280;7.950;2023-02-13T04:54:56;99989.19;;;6.76
72054;BMP280;59918;51.280;7.950;2023-02-13T04:57:22;99983.97;;;6.78
72054;BMP280;59918;51.280;7.950;2023-02-13T04:59:47;99977.09;;;6.78
72054;BMP280;59918;51.280;7.950;2023-02-13T05:02:12;99968.75;;;6.76
72054;BMP280;59918;51.280;7.950;2023-02-13T05:04:37;99966.06;;;6.78
72054;BMP280;59918;51.280;7.950;2023-02-13T05:07:03;99976.41;;;6.76
72054;BMP280;59918;51.280;7.950;2023-02-13T05:09:28;99978.53;;;6.71
72054;BMP280;59918;51.280;7.950;2023-02-13T05:11:53;99975.28;;;6.69
72054;BMP280;59918;51.280;7.950;2023-02-13T05:14:18;99982.84;;;6.71
72054;BMP280;59918;51.280;7.950;2023-02-13T05:16:44;99975.28;;;6.69
72054;BMP280;59918;51.280;7.950;2023-02-13T05:19:09;99977.03;;;6.69
72054;BMP280;59918;51.280;7.950;2023-02-13T05:21:34;99977.03;;;6.69
72054;BMP280;59918;51.280;7.950;2023-02-13T05:24:00;99971.00;;;6.70
72054;BMP280;59918;51.280;7.950;2023-02-13T05:26:25;99977.72;;;6.71
72054;BMP280;59918;51.280;7.950;2023-02-13T05:28:50;99974.09;;;6.73
72054;BMP280;59918;51.280;7.950;2023-02-13T05:31:15;99983.41;;;6.74
72054;BMP280;59918;51.280;7.950;2023-02-13T05:33:41;99981.66;;;6.75
72054;BMP280;59918;51.280;7.950;2023-02-13T05:36:06;99978.28;;;6.74
72054;BMP280;59918;51.280;7.950;2023-02-13T05:38:32;99980.72;;;6.76
72054;BMP280;59918;51.280;7.950;2023-02-13T05:40:58;99976.41;;;6.76
72054;BMP280;59918;51.280;7.950;2023-02-13T05:43:23;99983.41;;;6.74
72054;BMP280;59918;51.280;7.950;2023-02-13T05:45:49;99976.94;;;6.70
72054;BMP280;59918;51.280;7.950;2023-02-13T05:48:14;99983.78;;;6.70
72054;BMP280;59918;51.280;7.950;2023-02-13T05:50:39;99974.50;;;6.69
72054;BMP280;59918;51.280;7.950;2023-02-13T05:53:04;99975.44;;;6.68
72054;BMP280;59918;51.280;7.950;2023-02-13T05:55:30;99972.06;;;6.67
72054;BMP280;59918;51.280;7.950;2023-02-13T05:57:58;99976.38;;;6.67
72054;BMP280;59918;51.280;7.950;2023-02-13T06:00:24;99980.00;;;6.64
72054;BMP280;59918;51.280;7.950;2023-02-13T06:02:49;99973.25;;;6.63
72054;BMP280;59918;51.280;7.950;2023-02-13T06:05:15;99975.81;;;6.63
72054;BMP280;59918;51.280;7.950;2023-02-13T06:07:40;99972.56;;;6.61
72054;BMP280;59918;51.280;7.950;2023-02-13T06:10:06;99974.44;;;6.59
72054;BMP280;59918;51.280;7.950;2023-02-13T06:12:31;99968.66;;;6.57
72054;BMP280;59918;51.280;7.950;2023-02-13T06:14:56;99981.44;;;6.57
72054;BMP280;59918;51.280;7.950;2023-02-13T06:17:22;99976.31;;;6.57
72054;BMP280;59918;51.280;7.950;2023-02-13T06:19:47;99976.31;;;6.57
72054;BMP280;59918;51.280;7.950;2023-02-13T06:22:12;99978.88;;;6.57
72054;BMP280;59918;51.280;7.950;2023-02-13T06:24:37;99975.50;;;6.57
72054;BMP280;59918;51.280;7.950;2023-02-13T06:27:03;99979.03;;;6.56
72054;BMP280;59918;51.280;7.950;2023-02-13T06:29:28;99976.59;;;6.54
72054;BMP280;59918;51.280;7.950;2023-02-13T06:31:53;99986.94;;;6.53
72054;BMP280;59918;51.280;7.950;2023-02-13T06:34:18;99978.59;;;6.51
72054;BMP280;59918;51.280;7.950;2023-02-13T06:36:43;99983.81;;;6.50
72054;BMP280;59918;51.280;7.950;2023-02-13T06:39:09;99980.56;;;6.48
72054;BMP280;59918;51.280;7.950;2023-02-13T06:41:34;99980.72;;;6.46
72054;BMP280;59918;51.280;7.950;2023-02-13T06:43:59;99972.38;;;6.44
72054;BMP280;59918;51.280;7.950;2023-02-13T06:46:25;99980.03;;;6.44
72054;BMP280;59918;51.280;7.950;2023-02-13T06:48:50;99977.59;;;6.43
72054;BMP280;59918;51.280;7.950;2023-02-13T06:51:15;99977.16;;;6.38
72054;BMP280;59918;51.280;7.950;2023-02-13T06:53:40;99980.53;;;6.38
72054;BMP280;59918;51.280;7.950;2023-02-13T06:56:06;99984.13;;;6.36
72054;BMP280;59918;51.280;7.950;2023-02-13T06:58:31;99991.13;;;6.34
72054;BMP280;59918;51.280;7.950;2023-02-13T07:00:57;99993.69;;;6.34
72054;BMP280;59918;51.280;7.950;2023-02-13T07:03:22;99991.97;;;6.34
72054;BMP280;59918;51.280;7.950;2023-02-13T07:05:47;99995.88;;;6.38
72054;BMP280;59918;51.280;7.950;2023-02-13T07:08:12;100000.72;;;6.41
72054;BMP280;59918;51.280;7.950;2023-02-13T07:10:39;99993.63;;;6.45
72054;BMP280;59918;51.280;7.950;2023-02-13T07:13:04;99994.53;;;6.44
72054;BMP280;59918;51.280;7.950;2023-02-13T07:15:33;99997.94;;;6.44
72054;BMP280;59918;51.280;7.950;2023-02-13T07:17:58;100004.09;;;6.42
72054;BMP280;59918;51.280;7.950;2023-02-13T07:20:24;99999.13;;;6.40
72054;BMP280;59918;51.280;7.950;2023-02-13T07:22:50;100002.47;;;6.41
72054;BMP280;59918;51.280;7.950;2023-02-13T07:25:16;100014.56;;;6.39
72054;BMP280;59918;51.280;7.950;2023-02-13T07:27:41;100011.44;;;6.35
72054;BMP280;59918;51.280;7.950;2023-02-13T07:30:07;100010.66;;;6.35
72054;BMP280;59918;51.280;7.950;2023-02-13T07:32:32;100007.41;;;6.33
72054;BMP280;59918;51.280;7.950;2023-02-13T07:34:57;100012.63;;;6.31
72054;BMP280;59918;51.280;7.950;2023-02-13T07:37:30;100016.25;;;6.29
72054;BMP280;59918;51.280;7.950;2023-02-13T07:39:55;100015.00;;;6.23
72054;BMP280;59918;51.280;7.950;2023-02-13T07:42:21;100023.75;;;6.21
72054;BMP280;59918;51.280;7.950;2023-02-13T07:44:46;100010.28;;;6.19
72054;BMP280;59918;51.280;7.950;2023-02-13T07:47:11;100018.19;;;6.16
72054;BMP280;59918;51.280;7.950;2023-02-13T07:49:37;100014.94;;;6.14
72054;BMP280;59918;51.280;7.950;2023-02-13T07:52:03;100022.72;;;6.13
72054;BMP280;59918;51.280;7.950;2023-02-13T07:54:28;100023.91;;;6.09
72054;BMP280;59918;51.280;7.950;2023-02-13T07:56:54;100015.53;;;6.07
72054;BMP280;59918;51.280;7.950;2023-02-13T07:59:19;100018.25;;;6.05
72054;BMP280;59918;51.280;7.950;2023-02-13T08:01:44;100029.50;;;6.03
72054;BMP280;59918;51.280;7.950;2023-02-13T08:04:09;100029.50;;;6.03
72054;BMP280;59918;51.280;7.950;2023-02-13T08:06:38;100028.69;;;6.02
72054;BMP280;59918;51.280;7.950;2023-02-13T08:09:03;100031.25;;;6.02
72054;BMP280;59918;51.280;7.950;2023-02-13T08:11:31;100030.34;;;6.03
72054;BMP280;59918;51.280;7.950;2023-02-13T08:13:57;100028.59;;;6.04
72054;BMP280;59918;51.280;7.950;2023-02-13T08:16:22;100032.75;;;6.05
72054;BMP280;59918;51.280;7.950;2023-02-13T08:18:47;100025.75;;;6.07
72054;BMP280;59918;51.280;7.950;2023-02-13T08:21:13;100014.50;;;6.09
72054;BMP280;59918;51.280;7.950;2023-02-13T08:23:38;100019.34;;;6.12
72054;BMP280;59918;51.280;7.950;2023-02-13T08:26:03;100022.78;;;6.22
72054;BMP280;59918;51.280;7.950;2023-02-13T08:28:29;100019.47;;;6.51
72054;BMP280;59918;51.280;7.950;2023-02-13T08:30:54;100021.59;;;6.96
72054;BMP280;59918;51.280;7.950;2023-02-13T08:33:19;100014.03;;;7.33
72054;BMP280;59918;51.280;7.950;2023-02-13T08:35:44;100012.06;;;7.65
72054;BMP280;59918;51.280;7.950;2023-02-13T08:38:10;100018.69;;;7.96
72054;BMP280;59918;51.280;7.950;2023-02-13T08:40:35;100017.66;;;8.26
72054;BMP280;59918;51.280;7.950;2023-02-13T08:43:02;100022.84;;;8.53
72054;BMP280;59918;51.280;7.950;2023-02-13T08:45:29;100025.47;;;8.79
72054;BMP280;59918;51.280;7.950;2023-02-13T08:47:55;100009.59;;;9.03
72054;BMP280;59918;51.280;7.950;2023-02-13T08:50:21;100028.25;;;9.22
72054;BMP280;59918;51.280;7.950;2023-02-13T08:52:46;100022.81;;;9.34
72054;BMP280;59918;51.280;7.950;2023-02-13T08:55:11;100009.16;;;9.51
72054;BMP280;59918;51.280;7.950;2023-02-13T08:57:36;100022.03;;;9.68
72054;BMP280;59918;51.280;7.950;2023-02-13T09:00:02;100011.63;;;9.87
72054;BMP280;59918;51.280;7.950;2023-02-13T09:02:27;100003.25;;;10.02
72054;BMP280;59918;51.280;7.950;2023-02-13T09:04:53;100009.41;;;10.26
72054;BMP280;59918;51.280;7.950;2023-02-13T09:07:18;100006.31;;;10.40
72054;BMP280;59918;51.280;7.950;2023-02-13T09:09:43;100000.00;;;10.60
72054;BMP280;59918;51.280;7.950;2023-02-13T09:12:08;99991.59;;;10.83
72054;BMP280;59918;51.280;7.950;2023-02-13T09:14:34;99999.63;;;11.13
72054;BMP280;59918;51.280;7.950;2023-02-13T09:16:59;99999.94;;;11.51
72054;BMP280;59918;51.280;7.950;2023-02-13T09:19:24;99997.72;;;11.88
72054;BMP280;59918;51.280;7.950;2023-02-13T09:21:49;99995.78;;;12.21
72054;BMP280;59918;51.280;7.950;2023-02-13T09:24:14;99984.66;;;12.37
72054;BMP280;59918;51.280;7.950;2023-02-13T09:26:40;99998.03;;;12.48
72054;BMP280;59918;51.280;7.950;2023-02-13T09:29:05;99991.03;;;12.88
72054;BMP280;59918;51.280;7.950;2023-02-13T09:31:30;99990.28;;;13.10
72054;BMP280;59918;51.280;7.950;2023-02-13T09:33:56;99987.28;;;13.36
72054;BMP280;59918;51.280;7.950;2023-02-13T09:36:22;99985.81;;;13.64
72054;BMP280;59918;51.280;7.950;2023-02-13T09:38:55;99984.97;;;14.16
72054;BMP280;59918;51.280;7.950;2023-02-13T09:41:30;99987.75;;;14.79
72054;BMP280;59918;51.280;7.950;2023-02-13T09:44:27;99989.25;;;15.31
72054;BMP280;59918;51.280;7.950;2023-02-13T09:46:54;99988.03;;;15.48
72054;BMP280;59918;51.280;7.950;2023-02-13T09:49:21;99978.50;;;15.69
72054;BMP280;59918;51.280;7.950;2023-02-13T09:51:55;99984.22;;;16.27
72054;BMP280;59918;51.280;7.950;2023-02-13T09:54:21;99980.94;;;16.66
72054;BMP280;59918;51.280;7.950;2023-02-13T10:18:11;99985.50;;;19.67
72054;BMP280;59918;51.280;7.950;2023-02-13T10:20:44;99981.38;;;19.90
72054;BMP280;59918;51.280;7.950;2023-02-13T10:23:29;99977.78;;;19.85
72054;BMP280;59918;51.280;7.950;2023-02-13T10:26:00;99976.56;;;19.87
72054;BMP280;59918;51.280;7.950;2023-02-13T10:28:37;99977.09;;;19.96
72054;BMP280;59918;51.280;7.950;2023-02-13T10:31:06;99971.81;;;20.50
72054;BMP280;59918;51.280;7.950;2023-02-13T10:33:41;99967.31;;;20.57
72054;BMP280;59918;51.280;7.950;2023-02-13T10:38:35;99973.47;;;20.69
72054;BMP280;59918;51.280;7.950;2023-02-13T10:43:37;99967.94;;;21.30
72054;BMP280;59918;51.280;7.950;2023-02-13T10:46:10;99964.84;;;21.51
72054;BMP280;59918;51.280;7.950;2023-02-13T10:51:32;99962.13;;;21.75
72054;BMP280;59918;51.280;7.950;2023-02-13T10:54:21;99962.97;;;22.10
72054;BMP280;59918;51.280;7.950;2023-02-13T11:00:04;99951.84;;;22.37
72054;BMP280;59918;51.280;7.950;2023-02-13T11:02:31;99945.75;;;23.44
72054;BMP280;59918;51.280;7.950;2023-02-13T11:05:00;99940.78;;;23.75
72054;BMP280;59918;51.280;7.950;2023-02-13T11:07:26;99939.22;;;23.90
72054;BMP280;59918;51.280;7.950;2023-02-13T11:09:58;99938.44;;;24.22
72054;BMP280;59918;51.280;7.950;2023-02-13T11:12:30;99936.78;;;24.70
72054;BMP280;59918;51.280;7.950;2023-02-13T11:15:02;99928.31;;;25.05
72054;BMP280;59918;51.280;7.950;2023-02-13T11:17:32;99932.38;;;25.18
72054;BMP280;59918;51.280;7.950;2023-02-13T11:22:50;99932.13;;;24.93
72054;BMP280;59918;51.280;7.950;2023-02-13T11:25:21;99925.47;;;24.91
72054;BMP280;59918;51.280;7.950;2023-02-13T11:27:48;99924.44;;;25.13
72054;BMP280;59918;51.280;7.950;2023-02-13T11:30:36;99918.22;;;25.71
72054;BMP280;59918;51.280;7.950;2023-02-13T11:35:44;99914.53;;;25.46
72054;BMP280;59918;51.280;7.950;2023-02-13T11:40:40;99898.25;;;25.75
72054;BMP280;59918;51.280;7.950;2023-02-13T11:43:07;99890.59;;;26.45
72054;BMP280;59918;51.280;7.950;2023-02-13T11:45:38;99890.38;;;26.57
72054;BMP280;59918;51.280;7.950;2023-02-13T11:48:08;99894.94;;;26.71
72054;BMP280;59918;51.280;7.950;2023-02-13T11:50:39;99895.81;;;26.41
72054;BMP280;59918;51.280;7.950;2023-02-13T11:53:36;99892.53;;;26.65
72054;BMP280;59918;51.280;7.950;2023-02-13T11:56:10;99881.06;;;26.95
72054;BMP280;59918;51.280;7.950;2023-02-13T11:58:36;99879.88;;;27.47
72054;BMP280;59918;51.280;7.950;2023-02-13T12:04:15;99877.69;;;27.19
72054;BMP280;59918;51.280;7.950;2023-02-13T12:06:57;99882.53;;;27.47
72054;BMP280;59918;51.280;7.950;2023-02-13T12:09:22;99879.34;;;27.89
72054;BMP280;59918;51.280;7.950;2023-02-13T12:11:53;99875.69;;;28.00
72054;BMP280;59918;51.280;7.950;2023-02-13T12:14:22;99864.47;;;28.43
72054;BMP280;59918;51.280;7.950;2023-02-13T12:19:28;99849.91;;;29.51
72054;BMP280;59918;51.280;7.950;2023-02-13T12:24:45;99854.66;;;29.16
72054;BMP280;59918;51.280;7.950;2023-02-13T12:39:15;99819.38;;;30.38
72054;BMP280;59918;51.280;7.950;2023-02-13T12:41:48;99816.41;;;31.04
72054;BMP280;59918;51.280;7.950;2023-02-13T12:47:21;99793.97;;;31.60
72054;BMP280;59918;51.280;7.950;2023-02-13T12:53:01;99785.94;;;31.64
72054;BMP280;59918;51.280;7.950;2023-02-13T12:55:53;99782.72;;;31.49
72054;BMP280;59918;51.280;7.950;2023-02-13T13:01:09;99778.59;;;32.15
72054;BMP280;59918;51.280;7.950;2023-02-13T13:06:56;99774.97;;;32.38
72054;BMP280;59918;51.280;7.950;2023-02-13T13:09:48;99770.34;;;32.43
72054;BMP280;59918;51.280;7.950;2023-02-13T13:14:54;99756.59;;;32.49
72054;BMP280;59918;51.280;7.950;2023-02-13T13:22:48;99749.44;;;33.07
72054;BMP280;59918;51.280;7.950;2023-02-13T13:27:52;99740.47;;;33.03
72054;BMP280;59918;51.280;7.950;2023-02-13T13:30:23;99745.69;;;32.86
72054;BMP280;59918;51.280;7.950;2023-02-13T13:33:03;99751.97;;;32.55
72054;BMP280;59918;51.280;7.950;2023-02-13T13:35:31;99744.41;;;32.35
72054;BMP280;59918;51.280;7.950;2023-02-13T13:38:03;99735.84;;;32.60
72054;BMP280;59918;51.280;7.950;2023-02-13T13:45:46;99722.47;;;33.82
72054;BMP280;59918;51.280;7.950;2023-02-13T13:51:12;99725.69;;;32.00
72054;BMP280;59918;51.280;7.950;2023-02-13T13:56:23;99738.72;;;28.98
72054;BMP280;59918;51.280;7.950;2023-02-13T13:58:49;99730.97;;;29.39
72054;BMP280;59918;51.280;7.950;2023-02-13T14:01:28;99726.03;;;29.84
72054;BMP280;59918;51.280;7.950;2023-02-13T14:03:59;99722.03;;;31.38
72054;BMP280;59918;51.280;7.950;2023-02-13T14:06:27;99716.69;;;32.71
72054;BMP280;59918;51.280;7.950;2023-02-13T14:09:37;99699.88;;;34.34
72054;BMP280;59918;51.280;7.950;2023-02-13T14:14:50;99702.38;;;35.77
72054;BMP280;59918;51.280;7.950;2023-02-13T14:17:46;99705.97;;;36.10
72054;BMP280;59918;51.280;7.950;2023-02-13T14:20:02;99707.22;;;36.20
72054;BMP280;59918;51.280;7.950;2023-02-13T14:22:40;99708.16;;;36.16
72054;BMP280;59918;51.280;7.950;2023-02-13T14:25:06;99705.06;;;36.06
72054;BMP280;59918;51.280;7.950;2023-02-13T14:27:55;99697.78;;;35.86
72054;BMP280;59918;51.280;7.950;2023-02-13T14:30:32;99703.31;;;36.58
72054;BMP280;59918;51.280;7.950;2023-02-13T14:33:06;99693.88;;;36.93
72054;BMP280;59918;51.280;7.950;2023-02-13T14:35:34;99690.22;;;36.97
72054;BMP280;59918;51.280;7.950;2023-02-13T14:38:02;99700.97;;;36.77
72054;BMP280;59918;51.280;7.950;2023-02-13T14:40:30;99693.88;;;36.93
72054;BMP280;59918;51.280;7.950;2023-02-13T14:43:34;99696.31;;;37.18
72054;BMP280;59918;51.280;7.950;2023-02-13T14:48:39;99696.34;;;36.66
72054;BMP280;59918;51.280;7.950;2023-02-13T14:51:06;99692.06;;;36.24
72054;BMP280;59918;51.280;7.950;2023-02-13T14:53:48;99694.63;;;35.84
72054;BMP280;59918;51.280;7.950;2023-02-13T14:56:18;99690.00;;;35.56
72054;BMP280;59918;51.280;7.950;2023-02-13T15:01:46;99685.41;;;35.02
72054;BMP280;59918;51.280;7.950;2023-02-13T15:04:20;99682.28;;;34.92
72054;BMP280;59918;51.280;7.950;2023-02-13T15:06:47;99684.34;;;34.78
72054;BMP280;59918;51.280;7.950;2023-02-13T15:09:35;99685.56;;;34.56
72054;BMP280;59918;51.280;7.950;2023-02-13T15:12:02;99685.09;;;34.54
72054;BMP280;59918;51.280;7.950;2023-02-13T15:14:34;99682.75;;;34.44
72054;BMP280;59918;51.280;7.950;2023-02-13T15:17:07;99676.38;;;34.06
72054;BMP280;59918;51.280;7.950;2023-02-13T15:19:41;99694.16;;;31.94
72054;BMP280;59918;51.280;7.950;2023-02-13T15:22:17;99702.75;;;28.87
72054;BMP280;59918;51.280;7.950;2023-02-13T15:24:45;99710.78;;;26.17
72054;BMP280;59918;51.280;7.950;2023-02-13T15:27:18;99721.09;;;24.06
72054;BMP280;59918;51.280;7.950;2023-02-13T15:30:01;99723.03;;;22.25
72054;BMP280;59918;51.280;7.950;2023-02-13T15:32:33;99728.81;;;21.02
72054;BMP280;59918;51.280;7.950;2023-02-13T15:34:59;99739.75;;;20.06
72054;BMP280;59918;51.280;7.950;2023-02-13T15:37:27;99741.41;;;19.34
72054;BMP280;59918;51.280;7.950;2023-02-13T15:39:53;99738.66;;;18.68
72054;BMP280;59918;51.280;7.950;2023-02-13T15:42:18;99733.91;;;18.09
72054;BMP280;59918;51.280;7.950;2023-02-13T15:44:46;99731.00;;;17.60
72054;BMP280;59918;51.280;7.950;2023-02-13T15:49:50;99745.75;;;16.77
72054;BMP280;59918;51.280;7.950;2023-02-13T15:54:55;99741.66;;;16.08
72054;BMP280;59918;51.280;7.950;2023-02-13T15:57:21;99743.50;;;15.81
72054;BMP280;59918;51.280;7.950;2023-02-13T15:59:48;99750.13;;;15.56
72054;BMP280;59918;51.280;7.950;2023-02-13T16:02:22;99755.31;;;15.29
72054;BMP280;59918;51.280;7.950;2023-02-13T16:04:52;99752.66;;;15.02
72054;BMP280;59918;51.280;7.950;2023-02-13T16:07:17;99752.41;;;14.76
72054;BMP280;59918;51.280;7.950;2023-02-13T16:09:42;99745.16;;;14.51
72054;BMP280;59918;51.280;7.950;2023-02-13T16:12:18;99749.81;;;14.27
72054;BMP280;59918;51.280;7.950;2023-02-13T16:14:55;99750.09;;;14.03
72054;BMP280;59918;51.280;7.950;2023-02-13T16:17:30;99744.56;;;13.78
72054;BMP280;59918;51.280;7.950;2023-02-13T16:20:21;99744.97;;;13.52
72054;BMP280;59918;51.280;7.950;2023-02-13T16:22:47;99750.91;;;13.24
72054;BMP280;59918;51.280;7.950;2023-02-13T16:27:56;99744.16;;;12.79
72054;BMP280;59918;51.280;7.950;2023-02-13T16:30:43;99743.63;;;12.53
72054;BMP280;59918;51.280;7.950;2023-02-13T16:38:26;99741.97;;;12.00
72054;BMP280;59918;51.280;7.950;2023-02-13T16:40:52;99746.50;;;11.82
72054;BMP280;59918;51.280;7.950;2023-02-13T16:48:42;99755.59;;;11.31
72054;BMP280;59918;51.280;7.950;2023-02-13T16:51:08;99765.59;;;11.18
72054;BMP280;59918;51.280;7.950;2023-02-13T16:53:34;99762.03;;;11.03
72054;BMP280;59918;51.280;7.950;2023-02-13T16:56:03;99762.34;;;10.93